PWSweather.com
Personal Weather Stations
Station Observations
BRISTOL
HorfieldFilton, BristolGB BS7

HorfieldFiltonBristolGB BS7

Lat: 51.5, Lon: -2.576

Elevation: 272

Station Type: Davis VP2

http://www.martynhicks.co.uk/weather/data.php

Latest ConditionsUpdated 8:40:00 PM GMT Sunday, Sep 25, 2016
Currently Today's Max Today's Min Today's Average
Temperature 54.9°F12.7°C 62.5°F16.9°C 54.9°F12.7°C 58.4°F14.7°C
Dew Point 48.8°F9.3°C 60.3°F15.7°C 48.0°F8.9°C 52.9°F11.6°C
Winds 2.3 mph SW3.7 kmh SW 10.4 mph WNW16.7 kmh WNW - 3.2 mph 5.1 kmh
Wind Gusts 5.8 mph9.3 kmh 19.6 mph31.5 kmh - -
Humidity 80% 95% 60% 83%
Pressure 30.12 in1020.0 mb 30.12 in1020.0 mb 29.73 in1006.8 mb -
Precipitation - 0.51 in13.0 mm - -
Hour Temp Dew Point Humidity Winds Wind Gusts Pressure Precip Precip Rate Daily Precip Total
08:40 PM 54.9°F12.7°C 48.8°F9.3°C 80% 2.3 mph SW3.7 kmh SW 5.8 mph9.3 kmh 30.12 in1020.0 mb - 0.00 in0.0 mm 0.51 in13.0 mm
08:30 PM 54.9°F12.7°C 48.8°F9.3°C 80% 3.5 mph SW5.6 kmh SW 5.8 mph9.3 kmh 30.12 in1020.0 mb - 0.00 in0.0 mm 0.51 in13.0 mm
08:20 PM 54.9°F12.7°C 48.9°F9.4°C 80% 1.2 mph SW1.9 kmh SW 3.5 mph5.6 kmh 30.12 in1020.0 mb - 0.00 in0.0 mm 0.51 in13.0 mm
08:10 PM 55.2°F12.9°C 48.8°F9.3°C 79% 1.2 mph SW1.9 kmh SW 6.9 mph11.1 kmh 30.12 in1020.0 mb - 0.00 in0.0 mm 0.51 in13.0 mm
08:00 PM 55.5°F13.1°C 49.1°F9.5°C 79% 1.2 mph WSW1.9 kmh WSW 3.5 mph5.6 kmh 30.11 in1019.6 mb - 0.00 in0.0 mm 0.51 in13.0 mm
07:50 PM 55.6°F13.1°C 48.8°F9.3°C 78% 1.2 mph WSW1.9 kmh WSW 2.3 mph3.7 kmh 30.11 in1019.6 mb - 0.00 in0.0 mm 0.51 in13.0 mm
07:40 PM 55.7°F13.2°C 48.9°F9.4°C 78% 4.6 mph SW7.4 kmh SW 9.2 mph14.8 kmh 30.11 in1019.6 mb - 0.00 in0.0 mm 0.51 in13.0 mm
07:30 PM 55.7°F13.2°C 49.3°F9.6°C 79% 3.5 mph SW5.6 kmh SW 8.1 mph13.0 kmh 30.11 in1019.6 mb - 0.00 in0.0 mm 0.51 in13.0 mm
07:20 PM 55.8°F13.2°C 49.0°F9.4°C 78% 1.2 mph SW1.9 kmh SW 3.5 mph5.6 kmh 30.11 in1019.6 mb - 0.00 in0.0 mm 0.51 in13.0 mm
07:10 PM 56.0°F13.3°C 49.2°F9.6°C 78% 2.3 mph WSW3.7 kmh WSW 3.5 mph5.6 kmh 30.11 in1019.6 mb - 0.00 in0.0 mm 0.51 in13.0 mm
07:00 PM 56.1°F13.4°C 49.3°F9.6°C 78% 1.2 mph SW1.9 kmh SW 8.1 mph13.0 kmh 30.10 in1019.3 mb - 0.00 in0.0 mm 0.51 in13.0 mm
06:50 PM 56.2°F13.4°C 49.4°F9.7°C 78% 1.2 mph SW1.9 kmh SW 6.9 mph11.1 kmh 30.10 in1019.3 mb - 0.00 in0.0 mm 0.51 in13.0 mm
06:40 PM 56.3°F13.5°C 49.2°F9.6°C 77% 1.2 mph SW1.9 kmh SW 3.5 mph5.6 kmh 30.10 in1019.3 mb - 0.00 in0.0 mm 0.51 in13.0 mm
06:30 PM 56.5°F13.6°C 49.4°F9.7°C 77% 2.3 mph SW3.7 kmh SW 10.4 mph16.7 kmh 30.10 in1019.3 mb - 0.00 in0.0 mm 0.51 in13.0 mm
06:20 PM 56.7°F13.7°C 49.6°F9.8°C 77% 2.3 mph WSW3.7 kmh WSW 10.4 mph16.7 kmh 30.09 in1019.0 mb - 0.00 in0.0 mm 0.51 in13.0 mm
06:10 PM 57.0°F13.9°C 49.5°F9.7°C 76% 1.2 mph SW1.9 kmh SW 3.5 mph5.6 kmh 30.09 in1019.0 mb - 0.00 in0.0 mm 0.51 in13.0 mm
06:00 PM 57.4°F14.1°C 49.5°F9.7°C 75% 1.2 mph WSW1.9 kmh WSW 2.3 mph3.7 kmh 30.09 in1019.0 mb - 0.00 in0.0 mm 0.51 in13.0 mm
05:50 PM 57.7°F14.3°C 49.8°F9.9°C 75% 2.3 mph WSW3.7 kmh WSW 6.9 mph11.1 kmh 30.09 in1019.0 mb - 0.00 in0.0 mm 0.51 in13.0 mm
05:40 PM 58.0°F14.4°C 50.1°F10.1°C 75% 1.2 mph WSW1.9 kmh WSW 3.5 mph5.6 kmh 30.08 in1018.6 mb - 0.00 in0.0 mm 0.51 in13.0 mm
05:30 PM 58.3°F14.6°C 50.4°F10.2°C 75% 1.2 mph W1.9 kmh W 3.5 mph5.6 kmh 30.08 in1018.6 mb - 0.00 in0.0 mm 0.51 in13.0 mm
05:20 PM 58.4°F14.7°C 50.5°F10.3°C 75% 1.2 mph WSW1.9 kmh WSW 3.5 mph5.6 kmh 30.08 in1018.6 mb - 0.00 in0.0 mm 0.51 in13.0 mm
05:10 PM 58.2°F14.6°C 50.0°F10.0°C 74% Calm Calm 3.5 mph5.6 kmh 30.08 in1018.6 mb - 0.00 in0.0 mm 0.51 in13.0 mm
05:00 PM 58.1°F14.5°C 50.2°F10.1°C 75% 4.6 mph WSW7.4 kmh WSW 4.6 mph7.4 kmh 30.07 in1018.3 mb - 0.00 in0.0 mm 0.51 in13.0 mm
04:50 PM 58.2°F14.6°C 50.3°F10.2°C 75% 1.2 mph WSW1.9 kmh WSW 3.5 mph5.6 kmh 30.07 in1018.3 mb - 0.00 in0.0 mm 0.51 in13.0 mm
04:40 PM 58.3°F14.6°C 50.8°F10.4°C 76% 2.3 mph W3.7 kmh W 3.5 mph5.6 kmh 30.07 in1018.3 mb - 0.00 in0.0 mm 0.51 in13.0 mm
04:30 PM 58.5°F14.7°C 52.4°F11.3°C 80% 5.8 mph W9.3 kmh W 9.2 mph14.8 kmh 30.06 in1017.9 mb - 0.00 in0.0 mm 0.51 in13.0 mm
04:20 PM 58.7°F14.8°C 52.5°F11.4°C 80% 3.5 mph WSW5.6 kmh WSW 10.4 mph16.7 kmh 30.06 in1017.9 mb - 0.00 in0.0 mm 0.51 in13.0 mm
04:10 PM 59.3°F15.2°C 52.8°F11.6°C 79% 1.2 mph WSW1.9 kmh WSW 9.2 mph14.8 kmh 30.06 in1017.9 mb - 0.00 in0.0 mm 0.51 in13.0 mm
04:00 PM 60.1°F15.6°C 51.7°F10.9°C 74% 3.5 mph WSW5.6 kmh WSW 9.2 mph14.8 kmh 30.06 in1017.9 mb - 0.03 in0.8 mm 0.51 in13.0 mm
03:50 PM 61.0°F16.1°C 48.7°F9.3°C 64% 5.8 mph W9.3 kmh W 10.4 mph16.7 kmh 30.05 in1017.6 mb - 0.00 in0.0 mm 0.48 in12.2 mm
03:40 PM 61.8°F16.6°C 48.6°F9.2°C 62% 6.9 mph W11.1 kmh W 17.3 mph27.8 kmh 30.05 in1017.6 mb - 0.00 in0.0 mm 0.48 in12.2 mm
03:30 PM 61.6°F16.4°C 48.0°F8.9°C 61% 6.9 mph W11.1 kmh W 11.5 mph18.5 kmh 30.05 in1017.6 mb - 0.00 in0.0 mm 0.48 in12.2 mm
03:20 PM 61.9°F16.6°C 48.7°F9.3°C 62% 6.9 mph W11.1 kmh W 11.5 mph18.5 kmh 30.04 in1017.3 mb - 0.00 in0.0 mm 0.48 in12.2 mm
03:10 PM 62.1°F16.7°C 48.1°F8.9°C 60% 8.1 mph W13.0 kmh W 11.5 mph18.5 kmh 30.04 in1017.3 mb - 0.00 in0.0 mm 0.48 in12.2 mm
03:00 PM 62.3°F16.8°C 50.4°F10.2°C 65% 8.1 mph WNW13.0 kmh WNW 17.3 mph27.8 kmh 30.04 in1017.3 mb - 0.00 in0.0 mm 0.48 in12.2 mm
02:50 PM 62.1°F16.7°C 50.6°F10.3°C 66% 4.6 mph WSW7.4 kmh WSW 11.5 mph18.5 kmh 30.04 in1017.3 mb - 0.00 in0.0 mm 0.48 in12.2 mm
02:40 PM 62.0°F16.7°C 49.7°F9.8°C 64% 4.6 mph W7.4 kmh W 9.2 mph14.8 kmh 30.04 in1017.3 mb - 0.00 in0.0 mm 0.48 in12.2 mm
02:30 PM 62.2°F16.8°C 48.6°F9.2°C 61% 9.2 mph W14.8 kmh W 15.0 mph24.1 kmh 30.03 in1016.9 mb - 0.00 in0.0 mm 0.48 in12.2 mm
02:20 PM 61.8°F16.6°C 48.6°F9.2°C 62% 8.1 mph WSW13.0 kmh WSW 11.5 mph18.5 kmh 30.03 in1016.9 mb - 0.00 in0.0 mm 0.48 in12.2 mm
02:10 PM 61.8°F16.6°C 48.6°F9.2°C 62% 6.9 mph W11.1 kmh W 12.7 mph20.4 kmh 30.03 in1016.9 mb - 0.00 in0.0 mm 0.48 in12.2 mm
02:00 PM 62.0°F16.7°C 48.4°F9.1°C 61% 8.1 mph W13.0 kmh W 12.7 mph20.4 kmh 30.03 in1016.9 mb - 0.00 in0.0 mm 0.48 in12.2 mm
01:50 PM 62.1°F16.7°C 50.2°F10.1°C 65% 5.8 mph W9.3 kmh W 17.3 mph27.8 kmh 30.02 in1016.6 mb - 0.00 in0.0 mm 0.48 in12.2 mm
01:40 PM 62.0°F16.7°C 52.1°F11.2°C 70% 3.5 mph W5.6 kmh W 11.5 mph18.5 kmh 30.02 in1016.6 mb - 0.00 in0.0 mm 0.48 in12.2 mm
01:30 PM 62.0°F16.7°C 50.9°F10.5°C 67% 8.1 mph W13.0 kmh W 19.6 mph31.5 kmh 30.02 in1016.6 mb - 0.00 in0.0 mm 0.48 in12.2 mm
01:20 PM 62.1°F16.7°C 50.2°F10.1°C 65% 5.8 mph W9.3 kmh W 11.5 mph18.5 kmh 30.01 in1016.3 mb - 0.00 in0.0 mm 0.48 in12.2 mm
01:10 PM 61.5°F16.4°C 52.0°F11.1°C 71% 4.6 mph W7.4 kmh W 8.1 mph13.0 kmh 30.01 in1016.3 mb - 0.00 in0.0 mm 0.48 in12.2 mm
01:00 PM 61.5°F16.4°C 52.8°F11.6°C 73% 4.6 mph SW7.4 kmh SW 10.4 mph16.7 kmh 30.00 in1015.9 mb - 0.00 in0.0 mm 0.48 in12.2 mm
12:50 PM 61.2°F16.2°C 53.5°F11.9°C 76% 6.9 mph W11.1 kmh W 11.5 mph18.5 kmh 30.00 in1015.9 mb - 0.00 in0.0 mm 0.48 in12.2 mm
12:40 PM 59.5°F15.3°C 53.7°F12.1°C 81% 2.3 mph WSW3.7 kmh WSW 9.2 mph14.8 kmh 30.00 in1015.9 mb - 0.00 in0.0 mm 0.48 in12.2 mm
12:30 PM 60.0°F15.6°C 53.1°F11.7°C 78% 3.5 mph WSW5.6 kmh WSW 11.5 mph18.5 kmh 30.00 in1015.9 mb - 0.00 in0.0 mm 0.48 in12.2 mm
12:20 PM 59.9°F15.5°C 54.7°F12.6°C 83% 2.3 mph WNW3.7 kmh WNW 8.1 mph13.0 kmh 29.99 in1015.6 mb - 0.00 in0.0 mm 0.48 in12.2 mm
12:10 PM 58.8°F14.9°C 53.0°F11.7°C 81% 3.5 mph W5.6 kmh W 6.9 mph11.1 kmh 29.99 in1015.6 mb - 0.00 in0.0 mm 0.48 in12.2 mm
12:00 PM 59.3°F15.2°C 53.8°F12.1°C 82% 2.3 mph WSW3.7 kmh WSW 8.1 mph13.0 kmh 29.99 in1015.6 mb - 0.01 in0.3 mm 0.48 in12.2 mm
11:50 AM 61.7°F16.5°C 52.6°F11.4°C 72% 10.4 mph WNW16.7 kmh WNW 18.4 mph29.6 kmh 29.99 in1015.6 mb - 0.00 in0.0 mm 0.47 in11.9 mm
11:40 AM 61.7°F16.5°C 52.6°F11.4°C 72% 3.5 mph W5.6 kmh W 9.2 mph14.8 kmh 29.98 in1015.2 mb - 0.00 in0.0 mm 0.47 in11.9 mm
11:30 AM 61.6°F16.4°C 52.9°F11.6°C 73% 6.9 mph WNW11.1 kmh WNW 18.4 mph29.6 kmh 29.98 in1015.2 mb - 0.00 in0.0 mm 0.47 in11.9 mm
11:20 AM 61.4°F16.3°C 52.7°F11.5°C 73% 6.9 mph WSW11.1 kmh WSW 13.8 mph22.2 kmh 29.97 in1014.9 mb - 0.00 in0.0 mm 0.47 in11.9 mm
11:10 AM 62.2°F16.8°C 52.3°F11.3°C 70% 6.9 mph WSW11.1 kmh WSW 11.5 mph18.5 kmh 29.97 in1014.9 mb - 0.00 in0.0 mm 0.47 in11.9 mm
11:00 AM 61.9°F16.6°C 52.4°F11.3°C 71% 4.6 mph WSW7.4 kmh WSW 9.2 mph14.8 kmh 29.97 in1014.9 mb - 0.00 in0.0 mm 0.47 in11.9 mm
10:50 AM 61.7°F16.5°C 53.7°F12.1°C 75% 5.8 mph WSW9.3 kmh WSW 11.5 mph18.5 kmh 29.96 in1014.6 mb - 0.00 in0.0 mm 0.47 in11.9 mm
10:40 AM 61.1°F16.2°C 54.2°F12.3°C 78% 3.5 mph WSW5.6 kmh WSW 9.2 mph14.8 kmh 29.96 in1014.6 mb - 0.00 in0.0 mm 0.47 in11.9 mm
10:30 AM 59.7°F15.4°C 52.9°F11.6°C 78% 2.3 mph W3.7 kmh W 12.7 mph20.4 kmh 29.96 in1014.6 mb - 0.00 in0.0 mm 0.47 in11.9 mm
10:20 AM 60.0°F15.6°C 52.8°F11.6°C 77% 3.5 mph W5.6 kmh W 3.5 mph5.6 kmh 29.95 in1014.2 mb - 0.00 in0.0 mm 0.47 in11.9 mm
10:10 AM 60.0°F15.6°C 52.8°F11.6°C 77% 5.8 mph WSW9.3 kmh WSW 12.7 mph20.4 kmh 29.94 in1013.9 mb - 0.00 in0.0 mm 0.47 in11.9 mm
10:00 AM 60.4°F15.8°C 53.5°F11.9°C 78% 4.6 mph W7.4 kmh W 8.1 mph13.0 kmh 29.94 in1013.9 mb - 0.00 in0.0 mm 0.47 in11.9 mm
09:50 AM 60.2°F15.7°C 54.7°F12.6°C 82% 8.1 mph W13.0 kmh W 11.5 mph18.5 kmh 29.94 in1013.9 mb - 0.00 in0.0 mm 0.47 in11.9 mm
09:40 AM 59.1°F15.1°C 55.2°F12.9°C 87% 3.5 mph W5.6 kmh W 6.9 mph11.1 kmh 29.93 in1013.5 mb - 0.00 in0.0 mm 0.47 in11.9 mm
09:30 AM 58.8°F14.9°C 54.7°F12.6°C 86% 2.3 mph WSW3.7 kmh WSW 6.9 mph11.1 kmh 29.93 in1013.5 mb - 0.00 in0.0 mm 0.47 in11.9 mm
09:20 AM 59.3°F15.2°C 54.8°F12.7°C 85% 4.6 mph WSW7.4 kmh WSW 11.5 mph18.5 kmh 29.92 in1013.2 mb - 0.01 in0.3 mm 0.47 in11.9 mm
09:10 AM 59.4°F15.2°C 54.9°F12.7°C 85% 3.5 mph W5.6 kmh W 5.8 mph9.3 kmh 29.91 in1012.9 mb - 0.00 in0.0 mm 0.47 in11.9 mm
09:00 AM 58.4°F14.7°C 55.1°F12.8°C 89% 2.3 mph WNW3.7 kmh WNW 11.5 mph18.5 kmh 29.91 in1012.9 mb - 0.00 in0.0 mm 0.47 in11.9 mm
08:50 AM 57.8°F14.3°C 55.2°F12.9°C 91% 2.3 mph W3.7 kmh W 11.5 mph18.5 kmh 29.91 in1012.9 mb - 0.00 in0.0 mm 0.47 in11.9 mm
08:40 AM 57.9°F14.4°C 55.6°F13.1°C 92% 1.2 mph SW1.9 kmh SW 5.8 mph9.3 kmh 29.90 in1012.5 mb - 0.00 in0.0 mm 0.47 in11.9 mm
08:30 AM 57.2°F14.0°C 55.2°F12.9°C 93% 1.2 mph WSW1.9 kmh WSW 4.6 mph7.4 kmh 29.90 in1012.5 mb - 0.00 in0.0 mm 0.47 in11.9 mm
08:20 AM 56.7°F13.7°C 54.7°F12.6°C 93% 1.2 mph WSW1.9 kmh WSW 3.5 mph5.6 kmh 29.89 in1012.2 mb - 0.00 in0.0 mm 0.47 in11.9 mm
08:10 AM 56.3°F13.5°C 54.3°F12.4°C 93% 2.3 mph WSW3.7 kmh WSW 5.8 mph9.3 kmh 29.88 in1011.9 mb - 0.00 in0.0 mm 0.47 in11.9 mm
08:00 AM 55.8°F13.2°C 53.8°F12.1°C 93% 2.3 mph WSW3.7 kmh WSW 3.5 mph5.6 kmh 29.88 in1011.9 mb - 0.00 in0.0 mm 0.47 in11.9 mm
07:50 AM 55.8°F13.2°C 53.8°F12.1°C 93% 2.3 mph WSW3.7 kmh WSW 6.9 mph11.1 kmh 29.88 in1011.9 mb - 0.01 in0.3 mm 0.47 in11.9 mm
07:40 AM 55.9°F13.3°C 53.9°F12.2°C 93% 4.6 mph WSW7.4 kmh WSW 11.5 mph18.5 kmh 29.88 in1011.9 mb - 0.00 in0.0 mm 0.46 in11.7 mm
07:30 AM 55.7°F13.2°C 53.7°F12.1°C 93% 4.6 mph WSW7.4 kmh WSW 9.2 mph14.8 kmh 29.87 in1011.5 mb - 0.00 in0.0 mm 0.46 in11.7 mm
07:20 AM 55.7°F13.2°C 53.7°F12.1°C 93% 3.5 mph SW5.6 kmh SW 9.2 mph14.8 kmh 29.87 in1011.5 mb - 0.00 in0.0 mm 0.46 in11.7 mm
07:10 AM 55.7°F13.2°C 53.7°F12.1°C 93% 5.8 mph SW9.3 kmh SW 8.1 mph13.0 kmh 29.86 in1011.2 mb - 0.00 in0.0 mm 0.46 in11.7 mm
07:00 AM 55.7°F13.2°C 53.7°F12.1°C 93% 2.3 mph SW3.7 kmh SW 8.1 mph13.0 kmh 29.86 in1011.2 mb - 0.00 in0.0 mm 0.46 in11.7 mm
06:50 AM 55.7°F13.2°C 54.0°F12.2°C 94% 4.6 mph SW7.4 kmh SW 8.1 mph13.0 kmh 29.86 in1011.2 mb - 0.00 in0.0 mm 0.46 in11.7 mm
06:40 AM 55.7°F13.2°C 54.0°F12.2°C 94% 4.6 mph SW7.4 kmh SW 10.4 mph16.7 kmh 29.85 in1010.8 mb - 0.00 in0.0 mm 0.46 in11.7 mm
06:30 AM 55.7°F13.2°C 54.0°F12.2°C 94% 5.8 mph SSW9.3 kmh SSW 9.2 mph14.8 kmh 29.85 in1010.8 mb - 0.00 in0.0 mm 0.46 in11.7 mm
06:20 AM 55.8°F13.2°C 54.1°F12.3°C 94% 1.2 mph SW1.9 kmh SW 4.6 mph7.4 kmh 29.84 in1010.5 mb - 0.00 in0.0 mm 0.46 in11.7 mm
06:10 AM 55.9°F13.3°C 54.2°F12.3°C 94% 2.3 mph WSW3.7 kmh WSW 4.6 mph7.4 kmh 29.84 in1010.5 mb - 0.00 in0.0 mm 0.46 in11.7 mm
06:00 AM 56.0°F13.3°C 54.3°F12.4°C 94% 2.3 mph SW3.7 kmh SW 3.5 mph5.6 kmh 29.84 in1010.5 mb - 0.00 in0.0 mm 0.46 in11.7 mm
05:50 AM 56.0°F13.3°C 54.6°F12.6°C 95% 3.5 mph SW5.6 kmh SW 11.5 mph18.5 kmh 29.84 in1010.5 mb - 0.00 in0.0 mm 0.46 in11.7 mm
05:40 AM 56.2°F13.4°C 54.8°F12.7°C 95% 1.2 mph SW1.9 kmh SW 8.1 mph13.0 kmh 29.83 in1010.2 mb - 0.00 in0.0 mm 0.46 in11.7 mm
05:30 AM 56.2°F13.4°C 54.8°F12.7°C 95% 2.3 mph SW3.7 kmh SW 3.5 mph5.6 kmh 29.82 in1009.8 mb - 0.00 in0.0 mm 0.46 in11.7 mm
05:20 AM 56.2°F13.4°C 54.8°F12.7°C 95% 1.2 mph SW1.9 kmh SW 3.5 mph5.6 kmh 29.83 in1010.2 mb - 0.00 in0.0 mm 0.46 in11.7 mm
05:10 AM 56.3°F13.5°C 54.9°F12.7°C 95% 3.5 mph SW5.6 kmh SW 5.8 mph9.3 kmh 29.81 in1009.5 mb - 0.00 in0.0 mm 0.46 in11.7 mm
05:00 AM 56.4°F13.6°C 55.0°F12.8°C 95% 2.3 mph SW3.7 kmh SW 3.5 mph5.6 kmh 29.81 in1009.5 mb - 0.00 in0.0 mm 0.46 in11.7 mm
04:50 AM 56.4°F13.6°C 55.0°F12.8°C 95% Calm Calm 3.5 mph5.6 kmh 29.81 in1009.5 mb - 0.00 in0.0 mm 0.46 in11.7 mm
04:40 AM 56.4°F13.6°C 55.0°F12.8°C 95% Calm Calm 2.3 mph3.7 kmh 29.80 in1009.1 mb - 0.00 in0.0 mm 0.46 in11.7 mm
04:30 AM 56.4°F13.6°C 55.0°F12.8°C 95% 1.2 mph SW1.9 kmh SW 2.3 mph3.7 kmh 29.80 in1009.1 mb - 0.00 in0.0 mm 0.46 in11.7 mm
04:20 AM 56.5°F13.6°C 55.1°F12.8°C 95% Calm Calm 1.2 mph1.9 kmh 29.80 in1009.1 mb - 0.00 in0.0 mm 0.46 in11.7 mm
04:10 AM 56.6°F13.7°C 55.2°F12.9°C 95% 2.3 mph SW3.7 kmh SW 5.8 mph9.3 kmh 29.79 in1008.8 mb - 0.00 in0.0 mm 0.46 in11.7 mm
04:00 AM 56.6°F13.7°C 54.9°F12.7°C 94% Calm Calm -- 29.79 in1008.8 mb - 0.00 in0.0 mm 0.46 in11.7 mm
03:50 AM 56.7°F13.7°C 54.9°F12.7°C 94% 2.3 mph WSW3.7 kmh WSW 6.9 mph11.1 kmh 29.77 in1008.1 mb - 0.00 in0.0 mm 0.46 in11.7 mm
03:40 AM 56.7°F13.7°C 55.0°F12.8°C 94% 1.2 mph SW1.9 kmh SW 5.8 mph9.3 kmh 29.78 in1008.5 mb - 0.00 in0.0 mm 0.46 in11.7 mm
03:30 AM 56.6°F13.7°C 54.9°F12.7°C 94% 2.3 mph SW3.7 kmh SW 4.6 mph7.4 kmh 29.79 in1008.8 mb - 0.00 in0.0 mm 0.46 in11.7 mm
03:20 AM 56.6°F13.7°C 54.9°F12.7°C 94% 3.5 mph WSW5.6 kmh WSW 4.6 mph7.4 kmh 29.78 in1008.5 mb - 0.00 in0.0 mm 0.46 in11.7 mm
03:10 AM 56.5°F13.6°C 54.8°F12.7°C 94% Calm Calm -- 29.79 in1008.8 mb - 0.00 in0.0 mm 0.46 in11.7 mm
03:00 AM 56.5°F13.6°C 54.8°F12.7°C 94% Calm Calm 3.5 mph5.6 kmh 29.78 in1008.5 mb - 0.00 in0.0 mm 0.46 in11.7 mm
02:50 AM 56.4°F13.6°C 54.7°F12.6°C 94% 1.2 mph SW1.9 kmh SW 10.4 mph16.7 kmh 29.79 in1008.8 mb - 0.00 in0.0 mm 0.46 in11.7 mm
02:40 AM 56.3°F13.5°C 54.6°F12.6°C 94% 2.3 mph WSW3.7 kmh WSW 6.9 mph11.1 kmh 29.79 in1008.8 mb - 0.00 in0.0 mm 0.46 in11.7 mm
02:30 AM 56.1°F13.4°C 54.4°F12.4°C 94% 1.2 mph SW1.9 kmh SW 4.6 mph7.4 kmh 29.78 in1008.5 mb - 0.00 in0.0 mm 0.46 in11.7 mm
02:20 AM 56.1°F13.4°C 54.4°F12.4°C 94% Calm Calm -- 29.77 in1008.1 mb - 0.00 in0.0 mm 0.46 in11.7 mm
02:10 AM 56.2°F13.4°C 54.2°F12.3°C 93% 1.2 mph WSW1.9 kmh WSW 3.5 mph5.6 kmh 29.76 in1007.8 mb - 0.02 in0.5 mm 0.46 in11.7 mm
02:00 AM 56.4°F13.6°C 54.4°F12.4°C 93% 1.2 mph WSW1.9 kmh WSW 6.9 mph11.1 kmh 29.76 in1007.8 mb - 0.02 in0.5 mm 0.45 in11.4 mm
01:50 AM 56.6°F13.7°C 54.6°F12.6°C 93% Calm Calm 1.2 mph1.9 kmh 29.77 in1008.1 mb - 0.02 in0.5 mm 0.43 in10.9 mm
01:40 AM 56.7°F13.7°C 54.7°F12.6°C 93% 2.3 mph W3.7 kmh W 6.9 mph11.1 kmh 29.76 in1007.8 mb - 0.09 in2.3 mm 0.41 in10.4 mm
01:30 AM 56.9°F13.8°C 54.6°F12.6°C 92% 3.5 mph W5.6 kmh W 3.5 mph5.6 kmh 29.77 in1008.1 mb - 0.03 in0.8 mm 0.33 in8.4 mm
01:20 AM 57.4°F14.1°C 55.1°F12.8°C 92% 1.2 mph WNW1.9 kmh WNW 3.5 mph5.6 kmh 29.76 in1007.8 mb - 0.08 in2.0 mm 0.30 in7.6 mm
01:10 AM 58.5°F14.7°C 55.9°F13.3°C 91% 3.5 mph W5.6 kmh W 11.5 mph18.5 kmh 29.76 in1007.8 mb - 0.09 in2.3 mm 0.23 in5.8 mm
01:00 AM 60.5°F15.8°C 57.8°F14.3°C 91% 2.3 mph W3.7 kmh W 3.5 mph5.6 kmh 29.75 in1007.5 mb - 0.03 in0.8 mm 0.13 in3.3 mm
12:50 AM 62.3°F16.8°C 60.2°F15.7°C 93% 6.9 mph SSW11.1 kmh SSW 11.5 mph18.5 kmh 29.74 in1007.1 mb - 0.01 in0.3 mm 0.11 in2.8 mm
12:40 AM 62.3°F16.8°C 60.2°F15.7°C 93% 3.5 mph SSW5.6 kmh SSW 9.2 mph14.8 kmh 29.73 in1006.8 mb - 0.00 in0.0 mm 0.10 in2.5 mm
12:30 AM 62.4°F16.9°C 60.3°F15.7°C 93% 2.3 mph SSW3.7 kmh SSW 5.8 mph9.3 kmh 29.73 in1006.8 mb - 0.01 in0.3 mm 0.10 in2.5 mm
12:20 AM 62.5°F16.9°C 60.1°F15.6°C 92% 2.3 mph S3.7 kmh S 9.2 mph14.8 kmh 29.74 in1007.1 mb - 0.02 in0.5 mm 0.09 in2.3 mm
12:10 AM 62.5°F16.9°C 60.1°F15.6°C 92% Calm Calm 4.6 mph7.4 kmh 29.74 in1007.1 mb - 0.00 in0.0 mm 0.07 in1.8 mm
12:00 AM 62.5°F16.9°C 60.2°F15.7°C 92% 1.2 mph S1.9 kmh S 3.5 mph5.6 kmh 29.74 in1007.1 mb - 0.00 in0.0 mm 0.07 in1.8 mm